createdAt,value
2017-07-09T00:15:53.921Z,0
2017-07-09T00:16:55.690Z,0
2017-07-09T00:53:03.008Z,0
2017-07-09T01:04:37.572Z,0
2017-07-09T01:05:44.871Z,0
2017-07-09T01:06:46.970Z,0
2017-07-09T04:44:13.718Z,15
2017-07-09T04:45:15.762Z,20
2017-07-09T04:46:17.915Z,15
2017-07-09T04:47:20.519Z,10
2017-07-09T04:48:22.639Z,10
2017-07-09T04:49:26.162Z,15
2017-07-09T04:50:29.464Z,15
2017-07-09T04:51:31.946Z,15
2017-07-09T04:52:34.920Z,15
2017-07-09T04:53:39.299Z,20
2017-07-09T04:54:42.632Z,20
2017-07-09T04:55:44.452Z,25
2017-07-09T04:56:46.989Z,25
2017-07-09T04:57:52.929Z,25
2017-07-09T04:58:56.961Z,25
2017-07-09T04:59:59.240Z,25
2017-07-09T05:01:02.095Z,30
2017-07-09T05:02:04.896Z,25
2017-07-09T05:03:07.147Z,30
2017-07-09T05:04:10.419Z,30
2017-07-09T05:05:12.685Z,25
2017-07-09T05:06:14.879Z,30
2017-07-09T05:07:18.869Z,35
2017-07-09T05:08:21.905Z,35
2017-07-09T05:09:23.839Z,35
2017-07-09T05:10:29.884Z,35
2017-07-09T05:11:32.006Z,40
2017-07-09T05:12:34.122Z,35
2017-07-09T05:13:36.698Z,35
2017-07-09T05:14:39.662Z,35
2017-07-09T05:15:42.318Z,35
2017-07-09T05:16:44.251Z,30
2017-07-09T05:17:46.220Z,30
2017-07-09T05:18:48.209Z,30
2017-07-09T05:19:51.054Z,25
2017-07-09T05:20:54.131Z,25
2017-07-09T05:22:00.308Z,25
2017-07-09T05:23:02.702Z,25
2017-07-09T05:24:06.339Z,25
2017-07-09T05:25:08.353Z,30
2017-07-09T05:26:11.503Z,35
2017-07-09T05:27:13.590Z,35
2017-07-09T05:28:15.609Z,35
2017-07-09T05:29:17.586Z,35
2017-07-09T05:30:19.779Z,40
2017-07-09T05:31:22.856Z,35
2017-07-09T05:32:25.674Z,40
2017-07-09T05:33:27.767Z,40
2017-07-09T05:34:30.876Z,40
2017-07-09T05:35:33.629Z,40
2017-07-09T05:36:35.918Z,35
2017-07-09T05:37:43.002Z,30
2017-07-09T05:38:45.782Z,30
2017-07-09T05:39:51.522Z,30
2017-07-09T05:40:55.363Z,30
2017-07-09T05:42:02.866Z,30
2017-07-09T05:43:08.701Z,30
2017-07-09T05:44:14.000Z,30
2017-07-09T05:45:16.451Z,30
2017-07-09T05:46:21.326Z,25
2017-07-09T05:47:26.192Z,25
2017-07-09T05:48:29.056Z,25
2017-07-09T05:49:31.044Z,25
2017-07-09T05:50:35.038Z,30
2017-07-09T05:51:37.118Z,35
2017-07-09T05:52:40.242Z,35
2017-07-09T05:53:42.311Z,30
2017-07-09T05:54:44.405Z,30
2017-07-09T05:55:47.472Z,30
2017-07-09T05:56:49.544Z,30
2017-07-09T05:57:52.623Z,25
2017-07-09T05:58:54.710Z,25
2017-07-09T05:59:58.003Z,30
2017-07-09T06:01:03.333Z,35
2017-07-09T06:02:05.921Z,35
2017-07-09T06:03:10.808Z,40
2017-07-09T06:04:13.322Z,45
2017-07-09T06:05:16.021Z,40
2017-07-09T06:06:20.422Z,35
2017-07-09T06:07:24.295Z,35
2017-07-09T06:08:26.834Z,35
2017-07-09T06:09:28.818Z,35
2017-07-09T06:10:32.286Z,40
2017-07-09T06:11:35.809Z,40
2017-07-09T06:12:37.932Z,45
2017-07-09T06:13:40.307Z,45
2017-07-09T06:14:44.219Z,45
2017-07-09T06:15:46.577Z,45
2017-07-09T06:16:50.284Z,45
2017-07-09T06:17:52.739Z,45
2017-07-09T06:18:55.457Z,45
2017-07-09T06:19:59.578Z,45
2017-07-09T06:21:01.698Z,45
2017-07-09T06:22:03.891Z,50
2017-07-09T06:23:06.141Z,55
2017-07-09T06:24:09.024Z,60
2017-07-09T06:25:11.333Z,55
2017-07-09T06:26:13.454Z,55
2017-07-09T06:27:15.444Z,55
2017-07-09T06:28:17.799Z,55
2017-07-09T06:29:20.203Z,55
2017-07-09T06:30:22.470Z,50
2017-07-09T06:31:26.188Z,50
2017-07-09T06:32:28.446Z,50
2017-07-09T06:33:30.534Z,50
2017-07-09T06:34:33.984Z,50
2017-07-09T06:35:35.942Z,50
2017-07-09T06:36:39.623Z,50
2017-07-09T06:37:41.820Z,55
2017-07-09T06:38:46.046Z,55
2017-07-09T06:39:48.763Z,55
2017-07-09T06:40:51.944Z,55
2017-07-09T06:41:58.007Z,55
2017-07-09T06:43:01.629Z,55
2017-07-09T06:44:07.721Z,60
2017-07-09T06:45:11.112Z,60
2017-07-09T06:46:13.119Z,60
2017-07-09T06:47:15.143Z,65
2017-07-09T06:48:17.977Z,65
2017-07-09T06:49:25.723Z,65
2017-07-09T06:50:28.945Z,75
2017-07-09T06:51:31.750Z,85
2017-07-09T06:52:36.417Z,95
2017-07-09T06:53:45.350Z,100
2017-07-09T06:54:52.861Z,105
2017-07-09T06:55:57.824Z,105
2017-07-09T06:57:05.241Z,105
2017-07-09T06:58:10.387Z,110
2017-07-09T06:59:14.705Z,90
2017-07-09T07:00:19.106Z,80
2017-07-09T07:01:21.602Z,65
2017-07-09T07:02:24.440Z,60
2017-07-09T07:03:26.964Z,55
2017-07-09T07:04:30.166Z,55
2017-07-09T07:05:35.395Z,60
2017-07-09T07:06:41.762Z,70
2017-07-09T07:07:45.025Z,60
2017-07-09T07:08:47.058Z,60
2017-07-09T07:09:51.044Z,70
2017-07-09T07:10:56.914Z,70
2017-07-09T07:11:59.545Z,65
2017-07-09T07:13:04.163Z,70
2017-07-09T07:14:10.013Z,65
2017-07-09T07:15:12.203Z,65
2017-07-09T07:16:16.203Z,75
2017-07-09T07:17:18.797Z,75
2017-07-09T07:18:22.860Z,80
2017-07-09T07:19:26.540Z,90
2017-07-09T07:20:30.399Z,95
2017-07-09T07:21:39.833Z,95
2017-07-09T07:22:49.737Z,90
2017-07-09T07:24:01.141Z,90
2017-07-09T07:25:07.652Z,85
2017-07-09T07:27:00.050Z,90
2017-07-09T07:28:01.948Z,85
2017-07-09T07:29:05.241Z,85
2017-07-09T07:30:07.712Z,90
2017-07-09T07:31:09.617Z,100
2017-07-09T07:32:11.693Z,95
2017-07-09T07:33:13.884Z,95
2017-07-09T07:34:15.764Z,90
2017-07-09T07:35:18.182Z,95
2017-07-09T07:36:20.099Z,90
2017-07-09T07:37:22.151Z,90
2017-07-09T07:38:24.486Z,85
2017-07-09T07:39:26.467Z,85
2017-07-09T07:40:28.406Z,85
2017-07-09T07:41:30.313Z,90
2017-07-09T07:42:33.048Z,95
2017-07-09T07:43:35.268Z,100
2017-07-09T07:44:37.209Z,100
2017-07-09T07:45:39.283Z,100
2017-07-09T07:46:41.322Z,100
2017-07-09T07:47:43.252Z,100
2017-07-09T07:48:45.394Z,100
2017-07-09T07:49:48.702Z,100
2017-07-09T07:50:52.232Z,100
2017-07-09T07:51:54.210Z,100
2017-07-09T07:52:56.177Z,100
2017-07-09T07:53:58.224Z,100
2017-07-09T07:55:00.055Z,100
2017-07-09T07:56:01.851Z,100
2017-07-09T07:57:03.647Z,100
2017-07-09T07:58:05.451Z,105
2017-07-09T07:59:46.760Z,105
2017-07-09T08:01:00.873Z,110
2017-07-09T08:02:05.487Z,110
2017-07-09T08:03:08.724Z,110
2017-07-09T08:04:11.135Z,105
2017-07-09T08:05:13.141Z,110
2017-07-09T08:06:16.520Z,115
2017-07-09T08:07:20.664Z,120
2017-07-09T08:08:22.868Z,120
2017-07-09T08:09:26.273Z,120
2017-07-09T08:10:33.360Z,120
2017-07-09T08:11:35.871Z,120
2017-07-09T08:12:38.082Z,120
2017-07-09T08:13:40.079Z,120
2017-07-09T08:14:42.241Z,130
2017-07-09T08:15:44.092Z,135
2017-07-09T08:16:46.019Z,135
2017-07-09T08:17:48.795Z,140
2017-07-09T08:47:38.077Z,120
2017-07-09T09:13:45.797Z,210
2017-07-09T09:19:17.628Z,1025
2017-07-09T09:20:20.598Z,1390
2017-07-09T09:21:23.733Z,370
2017-07-09T09:22:26.056Z,510
2017-07-09T09:23:28.812Z,310
2017-07-09T09:24:33.693Z,1555
2017-07-09T09:25:37.065Z,330
2017-07-09T09:26:39.292Z,485
2017-07-09T09:27:44.941Z,610
2017-07-09T09:28:47.115Z,350
2017-07-09T09:29:54.408Z,340
2017-07-09T09:30:56.600Z,705
2017-07-09T09:32:02.135Z,1805
2017-07-09T09:33:06.605Z,1395
2017-07-09T09:34:13.439Z,895
2017-07-09T09:35:17.002Z,905
2017-07-09T09:36:19.733Z,1055
2017-07-09T09:37:22.082Z,540
2017-07-09T09:38:26.124Z,435
2017-07-09T09:39:31.044Z,505
2017-07-09T09:40:33.747Z,475
2017-07-09T09:41:40.658Z,465
2017-07-09T09:42:46.701Z,470
2017-07-09T09:43:49.194Z,460
2017-07-09T09:44:53.494Z,455
2017-07-09T09:45:56.078Z,435
2017-07-09T09:46:58.640Z,490
2017-07-09T09:48:06.341Z,490
2017-07-09T09:49:11.279Z,555
2017-07-09T09:50:13.701Z,710
2017-07-09T09:51:16.025Z,790
2017-07-09T09:52:18.192Z,1175
2017-07-09T09:53:25.927Z,1550
2017-07-09T09:54:27.829Z,2545
2017-07-09T09:55:29.853Z,2610
2017-07-09T09:56:33.266Z,2605
2017-07-09T09:57:34.991Z,2445
2017-07-09T09:58:36.802Z,2455
2017-07-09T09:59:38.623Z,2365
2017-07-09T10:00:41.819Z,2520
2017-07-09T10:01:45.215Z,2680
2017-07-09T10:02:46.988Z,2535
2017-07-09T10:03:49.343Z,2410
2017-07-09T10:04:51.169Z,2410
2017-07-09T10:05:52.917Z,2515
2017-07-09T10:06:55.126Z,2510
2017-07-09T10:07:56.893Z,2425
2017-07-09T10:08:58.616Z,2485
2017-07-09T10:10:00.303Z,2495
2017-07-09T10:11:01.994Z,2125
2017-07-09T10:12:03.993Z,2190
2017-07-09T10:13:05.742Z,1705
2017-07-09T10:14:07.504Z,1000
2017-07-09T10:15:14.902Z,925
2017-07-09T10:16:16.488Z,1600
2017-07-09T10:17:18.486Z,1805
2017-07-09T10:18:20.300Z,1825
2017-07-09T10:19:22.058Z,2410
2017-07-09T10:20:23.833Z,2245
2017-07-09T10:21:25.754Z,2275
2017-07-09T10:22:27.973Z,1585
2017-07-09T10:23:29.723Z,405
2017-07-09T10:24:31.681Z,260
2017-07-09T10:25:33.520Z,225
2017-07-09T10:26:35.356Z,250
2017-07-09T10:27:37.711Z,290
2017-07-09T10:28:39.479Z,330
2017-07-09T10:29:41.466Z,390
2017-07-09T10:30:43.388Z,600
2017-07-09T10:31:45.274Z,1080
2017-07-09T10:32:47.290Z,2025
2017-07-09T10:33:49.014Z,240
2017-07-09T10:34:50.781Z,120
2017-07-09T10:35:52.504Z,95
2017-07-09T10:36:54.482Z,80
2017-07-09T10:37:56.678Z,75
2017-07-09T10:38:58.596Z,75
2017-07-09T10:40:00.365Z,75
2017-07-09T10:41:02.137Z,75
2017-07-09T10:42:03.903Z,70
2017-07-09T10:43:06.059Z,70
2017-07-09T10:44:07.979Z,60
2017-07-09T10:45:10.313Z,60
2017-07-09T10:46:12.074Z,55
2017-07-09T10:47:13.842Z,55
2017-07-09T10:48:16.622Z,50
2017-07-09T10:49:18.455Z,50
2017-07-09T10:50:20.272Z,45
2017-07-09T10:51:22.027Z,45
2017-07-09T10:52:23.923Z,45
2017-07-09T10:53:26.079Z,45
2017-07-09T10:54:29.521Z,45
2017-07-09T10:55:31.323Z,45
2017-07-09T10:56:33.050Z,45
2017-07-09T10:57:34.948Z,45
2017-07-09T10:58:37.108Z,50
2017-07-09T10:59:38.972Z,50
2017-07-09T11:00:40.803Z,55
2017-07-09T11:01:43.530Z,60
2017-07-09T11:02:45.323Z,65
2017-07-09T11:03:47.495Z,70
2017-07-09T11:04:49.267Z,75
2017-07-09T11:05:51.122Z,90
2017-07-09T11:06:52.917Z,95
2017-07-09T11:07:54.971Z,115
2017-07-09T11:08:57.146Z,115
2017-07-09T11:09:59.085Z,115
2017-07-09T11:11:00.828Z,140
2017-07-09T11:12:02.585Z,115
2017-07-09T11:13:04.332Z,105
2017-07-09T11:14:06.471Z,95
2017-07-09T11:15:08.361Z,100
2017-07-09T11:16:10.170Z,90
2017-07-09T11:17:11.980Z,80
2017-07-09T11:18:13.783Z,70
2017-07-09T11:19:15.943Z,60
2017-07-09T11:20:17.808Z,70
2017-07-09T11:21:19.725Z,80
2017-07-09T11:22:21.561Z,80
2017-07-09T11:23:23.373Z,85
2017-07-09T11:24:25.695Z,95
2017-07-09T11:25:27.582Z,100
2017-07-09T11:26:29.449Z,95
2017-07-09T11:27:31.342Z,100
2017-07-09T11:28:33.102Z,130
2017-07-09T11:29:35.298Z,170
2017-07-09T11:30:37.095Z,315
2017-07-09T11:31:38.991Z,430
2017-07-09T11:32:41.299Z,315
2017-07-09T11:33:43.306Z,510
2017-07-09T11:34:45.453Z,530
2017-07-09T11:35:47.221Z,555
2017-07-09T11:36:49.127Z,505
2017-07-09T11:37:51.872Z,520
2017-07-09T11:38:54.200Z,405
2017-07-09T11:39:56.335Z,430
2017-07-09T11:40:58.175Z,235
2017-07-09T11:42:00.182Z,260
2017-07-09T11:43:01.972Z,230
2017-07-09T11:44:03.710Z,490
2017-07-09T11:45:05.941Z,175
2017-07-09T11:46:07.794Z,150
2017-07-09T11:47:09.677Z,140
2017-07-09T11:48:11.497Z,135
2017-07-09T11:49:13.289Z,170
2017-07-09T11:50:15.440Z,175
2017-07-09T11:51:17.368Z,185
2017-07-09T11:52:19.168Z,140
2017-07-09T11:53:20.971Z,270
2017-07-09T11:54:23.147Z,200
2017-07-09T11:55:25.289Z,140
2017-07-09T11:56:27.103Z,155
2017-07-09T11:57:29.052Z,195
2017-07-09T11:58:31.559Z,210
2017-07-09T11:59:33.433Z,255
2017-07-09T12:00:36.192Z,205
2017-07-09T12:01:38.018Z,175
2017-07-09T12:02:39.825Z,170
2017-07-09T12:03:41.598Z,180
2017-07-09T12:04:43.352Z,160
2017-07-09T12:05:45.529Z,185
2017-07-09T12:06:47.289Z,155
2017-07-09T12:07:50.048Z,135
2017-07-09T12:08:52.708Z,115
2017-07-09T12:09:54.494Z,120
2017-07-09T12:10:56.620Z,175
2017-07-09T12:11:58.481Z,190
2017-07-09T12:13:00.285Z,190
2017-07-09T12:14:02.178Z,165
2017-07-09T12:15:03.953Z,160
2017-07-09T12:16:06.157Z,120
2017-07-09T12:17:07.924Z,125
2017-07-09T12:18:09.740Z,135
2017-07-09T12:19:11.492Z,145
2017-07-09T12:20:13.341Z,160
2017-07-09T12:21:15.336Z,175
2017-07-09T12:22:17.105Z,165
2017-07-09T12:23:18.955Z,140
2017-07-09T12:24:21.443Z,130
2017-07-09T12:25:23.388Z,130
2017-07-09T12:26:25.629Z,140
2017-07-09T12:27:27.420Z,160
2017-07-09T12:28:29.222Z,160
2017-07-09T12:29:31.007Z,170
2017-07-09T12:30:32.815Z,245
2017-07-09T12:31:34.990Z,245
2017-07-09T12:32:36.870Z,195
2017-07-09T12:33:38.702Z,165
2017-07-09T12:34:40.519Z,200
2017-07-09T12:35:42.307Z,180
2017-07-09T12:36:44.521Z,210
2017-07-09T12:37:46.351Z,215
2017-07-09T12:38:48.199Z,210
2017-07-09T12:39:49.935Z,215
2017-07-09T12:40:51.679Z,220
2017-07-09T12:41:53.815Z,210
2017-07-09T12:42:55.654Z,190
2017-07-09T12:43:57.522Z,190
2017-07-09T12:44:59.516Z,170
2017-07-09T12:46:01.312Z,155
2017-07-09T12:47:03.570Z,150
2017-07-09T12:48:05.330Z,150
2017-07-09T12:49:07.073Z,145
2017-07-09T12:50:09.415Z,155
2017-07-09T12:51:11.196Z,165
2017-07-09T12:52:13.404Z,175
2017-07-09T12:53:15.299Z,150
2017-07-09T12:54:17.066Z,150
2017-07-09T12:55:18.818Z,145
2017-07-09T12:56:20.713Z,130
2017-07-09T12:57:22.871Z,145
2017-07-09T12:58:24.714Z,155
2017-07-09T12:59:26.483Z,145
2017-07-09T13:00:28.246Z,125
2017-07-09T13:01:30.206Z,130
2017-07-09T13:02:32.449Z,120
2017-07-09T13:03:34.337Z,140
2017-07-09T13:04:36.195Z,130
2017-07-09T13:05:38.037Z,140
2017-07-09T13:06:39.904Z,155
2017-07-09T13:07:42.153Z,125
2017-07-09T13:08:44.076Z,100
2017-07-09T13:09:45.921Z,90
2017-07-09T13:10:47.773Z,105
2017-07-09T13:11:49.645Z,125
2017-07-09T13:12:51.879Z,115
2017-07-09T13:13:53.661Z,90
2017-07-09T13:14:55.427Z,85
2017-07-09T13:15:57.290Z,80
2017-07-09T13:16:59.073Z,85
2017-07-09T13:18:01.329Z,90
2017-07-09T13:19:03.093Z,95
2017-07-09T13:20:05.859Z,110
2017-07-09T13:21:07.876Z,115
2017-07-09T13:22:09.784Z,110
2017-07-09T13:23:11.818Z,100
2017-07-09T13:24:13.651Z,100
2017-07-09T13:25:15.469Z,100
2017-07-09T13:26:17.385Z,95
2017-07-09T13:27:19.183Z,85
2017-07-09T13:28:21.399Z,85
2017-07-09T13:29:24.073Z,90
2017-07-09T13:30:25.015Z,95
2017-07-09T13:31:26.846Z,105
2017-07-09T13:32:28.698Z,145
2017-07-09T13:33:30.979Z,160
2017-07-09T13:34:32.809Z,160
2017-07-09T13:35:34.630Z,145
2017-07-09T13:36:36.472Z,145
2017-07-09T13:37:38.381Z,140
2017-07-09T13:38:40.654Z,130
2017-07-09T13:39:43.067Z,130
2017-07-09T13:40:44.908Z,110
2017-07-09T13:41:48.501Z,110
2017-07-09T13:42:50.396Z,125
2017-07-09T13:43:52.628Z,130
2017-07-09T13:44:54.505Z,160
2017-07-09T13:45:56.413Z,155
2017-07-09T13:46:58.445Z,140
2017-07-09T13:48:00.439Z,130
2017-07-09T13:49:02.725Z,120
2017-07-09T13:50:04.694Z,110
2017-07-09T13:51:06.585Z,100
2017-07-09T13:52:08.541Z,100
2017-07-09T13:53:10.481Z,105
2017-07-09T13:54:13.585Z,120
2017-07-09T13:55:14.593Z,105
2017-07-09T13:56:16.402Z,90
2017-07-09T13:57:18.478Z,90
2017-07-09T13:58:20.423Z,95
2017-07-09T13:59:22.737Z,105
2017-07-09T14:00:24.575Z,100
2017-07-09T14:01:26.392Z,100
2017-07-09T14:02:28.213Z,100
2017-07-09T14:03:30.019Z,100
2017-07-09T14:04:32.288Z,100
2017-07-09T14:05:34.649Z,100
2017-07-09T14:06:36.510Z,95
2017-07-09T14:07:38.282Z,90
2017-07-09T14:08:40.096Z,95
2017-07-09T14:09:42.290Z,85
2017-07-09T14:10:44.227Z,75
2017-07-09T14:11:46.039Z,80
2017-07-09T14:12:47.914Z,70
2017-07-09T14:13:49.691Z,75
2017-07-09T14:14:51.869Z,75
2017-07-09T14:15:53.815Z,80
2017-07-09T14:16:56.100Z,85
2017-07-09T14:17:57.977Z,85
2017-07-09T14:19:06.208Z,90
2017-07-09T14:22:21.659Z,90
2017-07-09T14:23:25.060Z,70
2017-07-09T14:24:27.285Z,60
2017-07-09T14:25:29.642Z,60
2017-07-09T14:26:37.821Z,60
2017-07-09T14:27:40.185Z,175
2017-07-09T14:28:42.245Z,145
2017-07-09T14:29:44.301Z,120
2017-07-09T14:30:46.358Z,135
2017-07-09T14:31:48.345Z,120
2017-07-09T14:32:50.768Z,270
2017-07-09T14:33:52.889Z,360
2017-07-09T14:34:54.703Z,240
2017-07-09T14:35:56.524Z,335
2017-07-09T14:36:58.408Z,555
2017-07-09T14:38:00.784Z,760
2017-07-09T14:39:02.775Z,405
2017-07-09T14:40:04.976Z,260
2017-07-09T14:41:06.936Z,265
2017-07-09T14:42:09.114Z,320
2017-07-09T14:43:11.802Z,140
2017-07-09T14:44:13.771Z,265
2017-07-09T14:45:15.796Z,430
2017-07-09T14:46:17.902Z,240
2017-07-09T14:49:07.387Z,120
2017-07-09T14:50:12.917Z,110
2017-07-09T14:51:14.952Z,105
2017-07-09T14:52:16.928Z,115
2017-07-09T14:53:18.942Z,130
2017-07-09T14:54:21.488Z,140
2017-07-09T14:55:23.553Z,145
2017-07-09T14:56:25.529Z,125
2017-07-09T14:57:27.575Z,105
2017-07-09T14:58:30.617Z,115
2017-07-09T14:59:33.261Z,110
2017-07-09T15:00:35.264Z,120
2017-07-09T15:01:37.444Z,110
2017-07-09T15:02:39.411Z,90
2017-07-09T15:03:41.733Z,80
2017-07-09T15:04:47.326Z,60
2017-07-09T15:05:49.516Z,75
2017-07-09T15:06:51.284Z,90
2017-07-09T15:07:53.076Z,95
2017-07-09T15:08:55.525Z,90
2017-07-09T15:09:57.290Z,95
2017-07-09T15:10:59.008Z,95
2017-07-09T15:12:00.916Z,110
2017-07-09T15:13:02.724Z,100
2017-07-09T15:14:04.950Z,90
2017-07-09T15:15:06.644Z,85
2017-07-09T15:16:08.393Z,80
2017-07-09T15:17:11.095Z,75
2017-07-09T15:18:12.789Z,65
2017-07-09T15:19:14.965Z,55
2017-07-09T15:20:16.685Z,55
2017-07-09T15:21:18.428Z,75
2017-07-09T15:22:20.147Z,60
2017-07-09T15:23:21.856Z,95
2017-07-09T15:24:24.062Z,85
2017-07-09T15:25:25.773Z,95
2017-07-09T15:26:28.147Z,100
2017-07-09T15:27:29.843Z,95
2017-07-09T15:28:31.539Z,95
2017-07-09T15:29:33.575Z,100
2017-07-09T15:30:35.289Z,95
2017-07-09T15:31:37.037Z,105
2017-07-09T15:32:38.749Z,110
2017-07-09T15:33:40.425Z,130
2017-07-09T15:34:42.552Z,140
2017-07-09T15:35:44.238Z,140
2017-07-09T15:36:46.559Z,150
2017-07-09T15:37:48.341Z,150
2017-07-09T15:38:50.092Z,150
2017-07-09T15:39:52.017Z,140
2017-07-09T15:40:54.574Z,135
2017-07-09T15:41:57.102Z,110
2017-07-09T15:42:58.891Z,125
2017-07-09T15:44:00.603Z,125
2017-07-09T15:45:02.581Z,130
2017-07-09T15:46:04.338Z,120
2017-07-09T15:47:06.173Z,125
2017-07-09T15:48:07.988Z,135
2017-07-09T15:49:10.736Z,130
2017-07-09T15:50:12.886Z,120
2017-07-09T15:51:14.825Z,120
2017-07-09T15:52:16.657Z,115
2017-07-09T15:53:18.376Z,95
2017-07-09T15:54:20.079Z,90
2017-07-09T15:55:22.360Z,95
2017-07-09T15:56:24.357Z,105
2017-07-09T15:57:26.103Z,115
2017-07-09T15:58:28.370Z,110
2017-07-09T15:59:30.189Z,110
2017-07-09T16:00:32.252Z,100
2017-07-09T16:01:34.052Z,95
2017-07-09T16:02:35.976Z,85
2017-07-09T16:03:37.748Z,95
2017-07-09T16:04:39.628Z,95
2017-07-09T16:05:41.782Z,85
2017-07-09T16:06:43.541Z,85
2017-07-09T16:07:45.352Z,85
2017-07-09T16:08:47.117Z,85
2017-07-09T16:09:48.955Z,90
2017-07-09T16:10:51.268Z,90
2017-07-09T16:11:53.134Z,90
2017-07-09T16:12:54.879Z,80
2017-07-09T16:13:56.731Z,90
2017-07-09T16:14:58.664Z,90
2017-07-09T16:16:01.046Z,90
2017-07-09T16:17:02.856Z,75
2017-07-09T16:18:04.749Z,80
2017-07-09T16:19:06.684Z,75
2017-07-09T16:20:08.817Z,75
2017-07-09T16:21:10.923Z,80
2017-07-09T16:22:12.785Z,80
2017-07-09T16:23:14.829Z,75
2017-07-09T16:24:16.711Z,75
2017-07-09T16:25:18.632Z,65
2017-07-09T16:26:20.716Z,65
2017-07-09T16:27:23.114Z,70
2017-07-09T16:28:24.989Z,70
2017-07-09T16:29:27.244Z,75
2017-07-09T16:30:29.196Z,70
2017-07-09T16:31:31.552Z,70
2017-07-09T16:32:33.582Z,65
2017-07-09T16:33:35.418Z,60
2017-07-09T16:34:37.379Z,65
2017-07-09T16:35:39.280Z,65
2017-07-09T16:36:41.448Z,65
2017-07-09T16:37:43.239Z,65
2017-07-09T16:38:45.011Z,60
2017-07-09T16:39:46.757Z,60
2017-07-09T16:40:48.660Z,65
2017-07-09T16:41:50.894Z,65
2017-07-09T16:42:52.812Z,65
2017-07-09T16:43:54.617Z,70
2017-07-09T16:44:56.636Z,75
2017-07-09T16:45:58.621Z,70
2017-07-09T16:47:01.207Z,70
2017-07-09T16:48:02.969Z,70
2017-07-09T16:49:05.108Z,70
2017-07-09T16:50:06.838Z,70
2017-07-09T16:51:09.493Z,70
2017-07-09T16:52:11.977Z,70
2017-07-09T16:53:13.832Z,70
2017-07-09T16:54:16.500Z,65
2017-07-09T16:55:18.414Z,70
2017-07-09T16:56:20.277Z,70
2017-07-09T16:57:22.515Z,70
2017-07-09T16:58:24.294Z,70
2017-07-09T16:59:26.821Z,65
2017-07-09T17:00:28.614Z,65
2017-07-09T17:01:30.383Z,60
2017-07-09T17:02:32.579Z,55
2017-07-09T17:03:34.406Z,55
2017-07-09T17:04:36.160Z,55
2017-07-09T17:05:38.146Z,55
2017-07-09T17:06:40.180Z,55
2017-07-09T17:07:42.390Z,55
2017-07-09T17:08:44.423Z,55
2017-07-09T17:09:48.025Z,55
2017-07-09T17:10:50.070Z,60
2017-07-09T17:11:53.158Z,60
2017-07-09T17:12:55.635Z,65
2017-07-09T17:13:58.149Z,65
2017-07-09T17:15:00.565Z,65
2017-07-09T17:16:02.635Z,60
2017-07-09T17:17:04.498Z,55
2017-07-09T17:18:06.836Z,60
2017-07-09T17:19:08.790Z,60
2017-07-09T17:20:10.724Z,55
2017-07-09T17:21:12.537Z,55
2017-07-09T17:22:14.355Z,50
2017-07-09T17:23:16.784Z,50
2017-07-09T17:24:18.901Z,45
2017-07-09T17:25:21.017Z,50
2017-07-09T17:26:23.082Z,50
2017-07-09T17:27:25.046Z,55
2017-07-09T17:28:27.222Z,55
2017-07-09T17:29:29.248Z,55
2017-07-09T17:30:32.125Z,55
2017-07-09T17:31:34.006Z,55
2017-07-09T17:32:35.834Z,55
2017-07-09T17:33:37.958Z,55
2017-07-09T17:34:39.846Z,50
2017-07-09T17:35:41.770Z,45
2017-07-09T17:36:43.645Z,45
2017-07-09T17:37:45.478Z,50
2017-07-09T17:38:47.854Z,50
2017-07-09T17:39:49.963Z,45
2017-07-09T17:40:51.962Z,40
2017-07-09T17:41:53.782Z,40
2017-07-09T17:42:55.585Z,35
2017-07-09T17:43:57.868Z,35
2017-07-09T17:44:59.809Z,40
2017-07-09T17:46:01.593Z,45
2017-07-09T17:47:03.413Z,45
2017-07-09T17:48:05.973Z,40
2017-07-09T17:49:09.172Z,50
2017-07-09T17:50:11.148Z,50
2017-07-09T17:51:13.138Z,50
2017-07-09T17:52:14.981Z,45
2017-07-09T17:53:16.895Z,45
2017-07-09T17:54:20.323Z,40
2017-07-09T17:55:22.273Z,40
2017-07-09T17:56:24.284Z,35
2017-07-09T17:57:26.144Z,35
2017-07-09T17:58:28.022Z,40
2017-07-09T17:59:30.163Z,35
2017-07-09T18:00:31.973Z,35
2017-07-09T18:01:33.805Z,35
2017-07-09T18:02:35.657Z,35
2017-07-09T18:03:38.172Z,35
2017-07-09T18:04:40.319Z,35
2017-07-09T18:05:42.205Z,35
2017-07-09T18:06:43.992Z,35
2017-07-09T18:07:46.080Z,45
2017-07-09T18:08:48.046Z,50
2017-07-09T18:09:50.068Z,50
2017-07-09T18:10:51.868Z,45
2017-07-09T18:11:54.564Z,50
2017-07-09T18:12:56.395Z,60
2017-07-09T18:13:58.147Z,55
2017-07-09T18:15:00.908Z,55
2017-07-09T18:16:02.930Z,55
2017-07-09T18:17:04.918Z,50
2017-07-09T18:18:07.258Z,50
2017-07-09T18:19:09.248Z,45
2017-07-09T18:20:11.457Z,40
2017-07-09T18:21:13.223Z,40
2017-07-09T18:22:15.181Z,30
2017-07-09T18:23:17.014Z,30
2017-07-09T18:24:18.833Z,30
2017-07-09T18:25:20.916Z,25
2017-07-09T18:26:24.369Z,25
2017-07-09T18:27:26.092Z,25
2017-07-09T18:28:27.918Z,25
2017-07-09T18:29:29.812Z,25
2017-07-09T18:30:32.838Z,25
2017-07-09T18:31:34.699Z,25
2017-07-09T18:32:36.783Z,25
2017-07-09T18:33:39.388Z,20
2017-07-09T18:34:42.250Z,20
2017-07-09T18:35:44.456Z,20
2017-07-09T18:36:46.394Z,20
2017-07-09T18:37:48.189Z,20
2017-07-09T18:38:50.099Z,20
2017-07-09T18:39:51.966Z,20
2017-07-09T18:40:54.386Z,20
2017-07-09T18:41:56.294Z,15
2017-07-09T18:42:58.144Z,15
2017-07-09T18:44:00.870Z,15
2017-07-09T18:45:02.638Z,15
2017-07-09T18:46:04.922Z,10
2017-07-09T18:47:06.700Z,10
2017-07-09T18:48:08.459Z,10
2017-07-09T18:49:10.310Z,10
2017-07-09T18:50:12.131Z,10
2017-07-09T18:51:15.064Z,10
2017-07-09T18:52:17.127Z,10
2017-07-09T18:53:18.897Z,10
2017-07-09T18:54:20.719Z,10
2017-07-09T18:55:22.635Z,10
2017-07-09T18:56:25.139Z,10
2017-07-09T18:57:27.190Z,10
2017-07-09T18:58:29.068Z,10
2017-07-09T18:59:31.177Z,10
2017-07-09T19:00:33.152Z,10
2017-07-09T19:01:35.841Z,10
2017-07-09T19:02:36.972Z,5
2017-07-09T19:03:38.837Z,5
2017-07-09T19:04:40.676Z,5
2017-07-09T19:05:44.175Z,5
2017-07-09T19:06:46.255Z,5
2017-07-09T19:07:48.174Z,5
2017-07-09T19:08:49.900Z,5
2017-07-09T19:09:51.723Z,5
2017-07-09T19:10:53.552Z,5
2017-07-09T19:11:56.379Z,5
2017-07-09T19:12:58.179Z,5
2017-07-09T19:13:59.916Z,5
2017-07-09T19:15:01.656Z,5
2017-07-09T19:16:03.649Z,5
2017-07-09T19:17:05.587Z,5
2017-07-09T19:18:07.469Z,0
2017-07-09T19:19:09.306Z,0
2017-07-09T19:20:11.082Z,0
2017-07-09T19:21:12.825Z,0
2017-07-09T19:22:15.073Z,0
2017-07-09T19:23:16.820Z,0
2017-07-09T19:24:18.600Z,0
2017-07-09T19:25:20.340Z,0
2017-07-09T19:26:22.092Z,0
2017-07-09T19:27:24.144Z,0
2017-07-09T19:28:25.930Z,0
2017-07-09T19:29:27.703Z,0
2017-07-09T19:30:29.467Z,0
2017-07-09T19:31:31.299Z,0
2017-07-09T19:32:33.386Z,0
2017-07-09T19:33:35.192Z,0
2017-07-09T19:34:37.117Z,0
2017-07-09T19:35:38.865Z,0
2017-07-09T19:36:40.646Z,0
2017-07-09T19:37:42.892Z,0
2017-07-09T19:38:44.717Z,0
2017-07-09T19:39:46.553Z,0
2017-07-09T19:40:48.916Z,0
2017-07-09T19:41:50.707Z,0
2017-07-09T19:42:52.819Z,0
2017-07-09T19:43:55.475Z,0
2017-07-09T19:44:57.264Z,0
2017-07-09T19:45:59.014Z,0
2017-07-09T19:47:00.804Z,0
2017-07-09T19:48:02.780Z,0
2017-07-09T19:49:04.528Z,0
2017-07-09T19:50:06.338Z,0
2017-07-09T19:51:08.144Z,0
2017-07-09T19:52:09.990Z,0
2017-07-09T19:53:12.104Z,0
2017-07-09T19:54:13.831Z,0
2017-07-09T19:55:15.575Z,0
2017-07-09T19:56:17.376Z,0
2017-07-09T19:57:19.123Z,0
2017-07-09T19:58:22.032Z,0
2017-07-09T19:59:23.841Z,0
2017-07-09T20:00:25.711Z,0
2017-07-09T20:01:27.456Z,0
2017-07-09T20:02:29.865Z,0
2017-07-09T20:03:32.038Z,0
2017-07-09T20:04:33.835Z,0
2017-07-09T20:05:35.585Z,0
2017-07-09T20:06:37.517Z,0
2017-07-09T20:07:39.434Z,0
2017-07-09T20:08:42.923Z,0
2017-07-09T20:09:44.758Z,0
2017-07-09T20:10:46.513Z,0
2017-07-09T20:11:48.244Z,0
2017-07-09T20:12:49.978Z,0
2017-07-09T20:13:51.932Z,0
2017-07-09T20:14:53.666Z,0
2017-07-09T20:15:55.463Z,0
2017-07-09T20:16:57.326Z,0
2017-07-09T20:17:59.146Z,0
2017-07-09T20:19:01.298Z,0
2017-07-09T20:20:03.106Z,0
2017-07-09T20:21:05.012Z,0